sensor_id;sensor_type;location;lat;lon;timestamp;temperature;humidity
8662;DHT22;29684;47.722;9.388;2024-03-17T00:01:09;7.60;99.90
8662;DHT22;29684;47.722;9.388;2024-03-17T00:03:53;7.50;99.90
8662;DHT22;29684;47.722;9.388;2024-03-17T00:06:37;7.30;99.90
8662;DHT22;29684;47.722;9.388;2024-03-17T00:09:21;7.20;99.90
8662;DHT22;29684;47.722;9.388;2024-03-17T00:12:06;7.20;99.90
8662;DHT22;29684;47.722;9.388;2024-03-17T00:14:51;6.90;99.90
8662;DHT22;29684;47.722;9.388;2024-03-17T00:17:35;6.80;99.90
8662;DHT22;29684;47.722;9.388;2024-03-17T00:20:19;6.90;99.90
8662;DHT22;29684;47.722;9.388;2024-03-17T00:23:05;7.10;99.90
8662;DHT22;29684;47.722;9.388;2024-03-17T00:25:55;7.00;99.90
8662;DHT22;29684;47.722;9.388;2024-03-17T00:28:39;6.90;99.90
8662;DHT22;29684;47.722;9.388;2024-03-17T00:31:23;6.80;99.90
8662;DHT22;29684;47.722;9.388;2024-03-17T00:34:08;6.80;99.90
8662;DHT22;29684;47.722;9.388;2024-03-17T00:36:53;6.80;99.90
8662;DHT22;29684;47.722;9.388;2024-03-17T00:39:37;6.60;99.90
8662;DHT22;29684;47.722;9.388;2024-03-17T00:42:24;6.60;99.90
8662;DHT22;29684;47.722;9.388;2024-03-17T00:45:10;6.70;99.90
8662;DHT22;29684;47.722;9.388;2024-03-17T00:47:55;6.70;99.90
8662;DHT22;29684;47.722;9.388;2024-03-17T00:50:39;6.80;99.90
8662;DHT22;29684;47.722;9.388;2024-03-17T00:53:24;6.80;99.90
8662;DHT22;29684;47.722;9.388;2024-03-17T00:56:09;6.80;99.90
8662;DHT22;29684;47.722;9.388;2024-03-17T00:58:53;6.90;99.90
8662;DHT22;29684;47.722;9.388;2024-03-17T01:01:37;6.90;99.90
8662;DHT22;29684;47.722;9.388;2024-03-17T01:04:21;6.90;99.90
8662;DHT22;29684;47.722;9.388;2024-03-17T01:07:06;6.90;99.90
8662;DHT22;29684;47.722;9.388;2024-03-17T01:09:51;6.90;99.90
8662;DHT22;29684;47.722;9.388;2024-03-17T01:12:35;7.00;99.90
8662;DHT22;29684;47.722;9.388;2024-03-17T01:15:19;7.00;99.90
8662;DHT22;29684;47.722;9.388;2024-03-17T01:18:04;7.10;99.90
8662;DHT22;29684;47.722;9.388;2024-03-17T01:20:49;7.10;99.90
8662;DHT22;29684;47.722;9.388;2024-03-17T01:23:33;7.10;99.90
8662;DHT22;29684;47.722;9.388;2024-03-17T01:26:17;7.20;99.90
8662;DHT22;29684;47.722;9.388;2024-03-17T01:29:01;7.20;99.90
8662;DHT22;29684;47.722;9.388;2024-03-17T01:31:46;7.30;99.90
8662;DHT22;29684;47.722;9.388;2024-03-17T01:34:31;7.40;99.90
8662;DHT22;29684;47.722;9.388;2024-03-17T01:37:15;7.30;99.90
8662;DHT22;29684;47.722;9.388;2024-03-17T01:39:59;7.20;99.90
8662;DHT22;29684;47.722;9.388;2024-03-17T01:42:43;7.10;99.90
8662;DHT22;29684;47.722;9.388;2024-03-17T01:45:32;6.90;99.90
8662;DHT22;29684;47.722;9.388;2024-03-17T01:48:16;6.60;99.90
8662;DHT22;29684;47.722;9.388;2024-03-17T01:51:03;6.50;99.90
8662;DHT22;29684;47.722;9.388;2024-03-17T01:53:47;6.50;99.90
8662;DHT22;29684;47.722;9.388;2024-03-17T01:56:31;6.50;99.90
8662;DHT22;29684;47.722;9.388;2024-03-17T01:59:15;6.70;99.90
8662;DHT22;29684;47.722;9.388;2024-03-17T02:02:00;6.70;99.90
8662;DHT22;29684;47.722;9.388;2024-03-17T02:04:44;6.70;99.90
8662;DHT22;29684;47.722;9.388;2024-03-17T02:07:28;6.60;99.90
8662;DHT22;29684;47.722;9.388;2024-03-17T02:10:13;6.60;99.90
8662;DHT22;29684;47.722;9.388;2024-03-17T02:12:57;6.80;99.90
8662;DHT22;29684;47.722;9.388;2024-03-17T02:15:42;6.80;99.90
8662;DHT22;29684;47.722;9.388;2024-03-17T02:18:26;6.80;99.90
8662;DHT22;29684;47.722;9.388;2024-03-17T02:21:10;6.80;99.90
8662;DHT22;29684;47.722;9.388;2024-03-17T02:23:55;6.90;99.90
8662;DHT22;29684;47.722;9.388;2024-03-17T02:26:40;6.90;99.90
8662;DHT22;29684;47.722;9.388;2024-03-17T02:29:24;6.90;99.90
8662;DHT22;29684;47.722;9.388;2024-03-17T02:32:09;6.90;99.90
8662;DHT22;29684;47.722;9.388;2024-03-17T02:34:53;6.90;99.90
8662;DHT22;29684;47.722;9.388;2024-03-17T02:37:37;6.80;99.90
8662;DHT22;29684;47.722;9.388;2024-03-17T02:40:22;6.70;99.90
8662;DHT22;29684;47.722;9.388;2024-03-17T02:43:06;6.80;99.90
8662;DHT22;29684;47.722;9.388;2024-03-17T02:45:50;6.90;99.90
8662;DHT22;29684;47.722;9.388;2024-03-17T02:48:35;6.90;99.90
8662;DHT22;29684;47.722;9.388;2024-03-17T02:51:22;6.90;99.90
8662;DHT22;29684;47.722;9.388;2024-03-17T02:54:06;6.80;99.90
8662;DHT22;29684;47.722;9.388;2024-03-17T02:56:51;6.80;99.90
8662;DHT22;29684;47.722;9.388;2024-03-17T02:59:35;6.60;99.90
8662;DHT22;29684;47.722;9.388;2024-03-17T03:02:19;6.70;99.90
8662;DHT22;29684;47.722;9.388;2024-03-17T03:05:04;6.60;99.90
8662;DHT22;29684;47.722;9.388;2024-03-17T03:07:49;6.60;99.90
8662;DHT22;29684;47.722;9.388;2024-03-17T03:10:33;6.70;99.90
8662;DHT22;29684;47.722;9.388;2024-03-17T03:13:19;6.70;99.90
8662;DHT22;29684;47.722;9.388;2024-03-17T03:16:05;6.70;99.90
8662;DHT22;29684;47.722;9.388;2024-03-17T03:18:53;6.70;99.90
8662;DHT22;29684;47.722;9.388;2024-03-17T03:21:37;6.80;99.90
8662;DHT22;29684;47.722;9.388;2024-03-17T03:24:21;6.70;99.90
8662;DHT22;29684;47.722;9.388;2024-03-17T03:27:06;6.80;99.90
8662;DHT22;29684;47.722;9.388;2024-03-17T03:29:50;6.80;99.90
8662;DHT22;29684;47.722;9.388;2024-03-17T03:32:34;6.80;99.90
8662;DHT22;29684;47.722;9.388;2024-03-17T03:35:18;6.60;99.90
8662;DHT22;29684;47.722;9.388;2024-03-17T03:38:03;6.50;99.90
8662;DHT22;29684;47.722;9.388;2024-03-17T03:40:48;6.40;99.90
8662;DHT22;29684;47.722;9.388;2024-03-17T03:43:33;6.50;99.90
8662;DHT22;29684;47.722;9.388;2024-03-17T03:46:20;6.60;99.90
8662;DHT22;29684;47.722;9.388;2024-03-17T03:49:04;6.80;99.90
8662;DHT22;29684;47.722;9.388;2024-03-17T03:51:48;6.70;99.90
8662;DHT22;29684;47.722;9.388;2024-03-17T03:54:33;6.50;99.90
8662;DHT22;29684;47.722;9.388;2024-03-17T03:57:18;6.40;99.90
8662;DHT22;29684;47.722;9.388;2024-03-17T04:00:05;6.30;99.90
8662;DHT22;29684;47.722;9.388;2024-03-17T04:02:56;6.30;99.90
8662;DHT22;29684;47.722;9.388;2024-03-17T04:05:40;6.30;99.90
8662;DHT22;29684;47.722;9.388;2024-03-17T04:08:24;6.40;99.90
8662;DHT22;29684;47.722;9.388;2024-03-17T04:11:09;6.50;99.90
8662;DHT22;29684;47.722;9.388;2024-03-17T04:13:53;6.60;99.90
8662;DHT22;29684;47.722;9.388;2024-03-17T04:16:40;6.60;99.90
8662;DHT22;29684;47.722;9.388;2024-03-17T04:19:25;6.70;99.90
8662;DHT22;29684;47.722;9.388;2024-03-17T04:22:10;6.60;99.90
8662;DHT22;29684;47.722;9.388;2024-03-17T04:24:54;6.60;99.90
8662;DHT22;29684;47.722;9.388;2024-03-17T04:27:40;6.60;99.90
8662;DHT22;29684;47.722;9.388;2024-03-17T04:30:25;6.50;99.90
8662;DHT22;29684;47.722;9.388;2024-03-17T04:33:09;6.40;99.90
8662;DHT22;29684;47.722;9.388;2024-03-17T04:35:55;6.40;99.90
8662;DHT22;29684;47.722;9.388;2024-03-17T04:38:39;6.50;99.90
8662;DHT22;29684;47.722;9.388;2024-03-17T04:41:24;6.50;99.90
8662;DHT22;29684;47.722;9.388;2024-03-17T04:44:09;6.60;99.90
8662;DHT22;29684;47.722;9.388;2024-03-17T04:46:54;6.60;99.90
8662;DHT22;29684;47.722;9.388;2024-03-17T04:52:23;6.50;99.90
8662;DHT22;29684;47.722;9.388;2024-03-17T04:55:07;6.50;99.90
8662;DHT22;29684;47.722;9.388;2024-03-17T04:57:52;6.60;99.90
8662;DHT22;29684;47.722;9.388;2024-03-17T05:00:36;6.40;99.90
8662;DHT22;29684;47.722;9.388;2024-03-17T05:03:20;6.20;99.90
8662;DHT22;29684;47.722;9.388;2024-03-17T05:06:05;5.90;99.90
8662;DHT22;29684;47.722;9.388;2024-03-17T05:08:49;5.80;99.90
8662;DHT22;29684;47.722;9.388;2024-03-17T05:11:33;5.80;99.90
8662;DHT22;29684;47.722;9.388;2024-03-17T05:14:19;5.80;99.90
8662;DHT22;29684;47.722;9.388;2024-03-17T05:17:04;5.80;99.90
8662;DHT22;29684;47.722;9.388;2024-03-17T05:19:49;5.90;99.90
8662;DHT22;29684;47.722;9.388;2024-03-17T05:22:33;5.90;99.90
8662;DHT22;29684;47.722;9.388;2024-03-17T05:25:17;5.90;99.90
8662;DHT22;29684;47.722;9.388;2024-03-17T05:28:01;5.90;99.90
8662;DHT22;29684;47.722;9.388;2024-03-17T05:30:45;5.80;99.90
8662;DHT22;29684;47.722;9.388;2024-03-17T05:33:29;5.70;99.90
8662;DHT22;29684;47.722;9.388;2024-03-17T05:36:14;5.60;99.90
8662;DHT22;29684;47.722;9.388;2024-03-17T05:38:58;5.50;99.90
8662;DHT22;29684;47.722;9.388;2024-03-17T05:41:43;5.60;99.90
8662;DHT22;29684;47.722;9.388;2024-03-17T05:44:28;5.60;99.90
8662;DHT22;29684;47.722;9.388;2024-03-17T05:47:13;5.70;99.90
8662;DHT22;29684;47.722;9.388;2024-03-17T05:49:57;5.70;99.90
8662;DHT22;29684;47.722;9.388;2024-03-17T05:52:41;5.70;99.90
8662;DHT22;29684;47.722;9.388;2024-03-17T05:55:25;5.80;99.90
8662;DHT22;29684;47.722;9.388;2024-03-17T05:58:10;5.90;99.90
8662;DHT22;29684;47.722;9.388;2024-03-17T06:00:54;5.80;99.90
8662;DHT22;29684;47.722;9.388;2024-03-17T06:03:39;5.80;99.90
8662;DHT22;29684;47.722;9.388;2024-03-17T06:06:23;6.20;99.90
8662;DHT22;29684;47.722;9.388;2024-03-17T06:09:07;6.90;99.90
8662;DHT22;29684;47.722;9.388;2024-03-17T06:11:53;6.70;99.90
8662;DHT22;29684;47.722;9.388;2024-03-17T06:14:38;6.40;99.90
8662;DHT22;29684;47.722;9.388;2024-03-17T06:17:22;6.10;99.90
8662;DHT22;29684;47.722;9.388;2024-03-17T06:20:07;6.00;99.90
8662;DHT22;29684;47.722;9.388;2024-03-17T06:22:55;6.10;99.90
8662;DHT22;29684;47.722;9.388;2024-03-17T06:25:47;6.00;99.90
8662;DHT22;29684;47.722;9.388;2024-03-17T06:28:31;6.00;99.90
8662;DHT22;29684;47.722;9.388;2024-03-17T06:31:16;6.00;99.90
8662;DHT22;29684;47.722;9.388;2024-03-17T06:34:01;6.10;99.90
8662;DHT22;29684;47.722;9.388;2024-03-17T06:36:47;6.30;99.90
8662;DHT22;29684;47.722;9.388;2024-03-17T06:39:32;6.20;99.90
8662;DHT22;29684;47.722;9.388;2024-03-17T06:42:16;6.10;99.90
8662;DHT22;29684;47.722;9.388;2024-03-17T06:45:00;6.00;99.90
8662;DHT22;29684;47.722;9.388;2024-03-17T06:47:44;5.90;99.90
8662;DHT22;29684;47.722;9.388;2024-03-17T06:50:28;6.00;99.90
8662;DHT22;29684;47.722;9.388;2024-03-17T06:53:12;6.10;99.90
8662;DHT22;29684;47.722;9.388;2024-03-17T06:55:58;6.20;99.90
8662;DHT22;29684;47.722;9.388;2024-03-17T06:58:43;6.30;99.90
8662;DHT22;29684;47.722;9.388;2024-03-17T07:01:27;6.40;99.90
8662;DHT22;29684;47.722;9.388;2024-03-17T07:04:11;6.60;99.90
8662;DHT22;29684;47.722;9.388;2024-03-17T07:06:56;6.70;99.90
8662;DHT22;29684;47.722;9.388;2024-03-17T07:09:40;7.00;99.90
8662;DHT22;29684;47.722;9.388;2024-03-17T07:12:25;7.10;99.90
8662;DHT22;29684;47.722;9.388;2024-03-17T07:15:09;7.30;99.90
8662;DHT22;29684;47.722;9.388;2024-03-17T07:17:55;7.50;99.90
8662;DHT22;29684;47.722;9.388;2024-03-17T07:20:40;7.70;99.90
8662;DHT22;29684;47.722;9.388;2024-03-17T07:23:24;7.90;99.90
8662;DHT22;29684;47.722;9.388;2024-03-17T07:26:09;8.20;99.90
8662;DHT22;29684;47.722;9.388;2024-03-17T07:28:53;8.40;99.90
8662;DHT22;29684;47.722;9.388;2024-03-17T07:31:37;8.50;99.90
8662;DHT22;29684;47.722;9.388;2024-03-17T07:34:21;8.70;99.90
8662;DHT22;29684;47.722;9.388;2024-03-17T07:37:05;8.90;99.90
8662;DHT22;29684;47.722;9.388;2024-03-17T07:39:49;9.10;99.90
8662;DHT22;29684;47.722;9.388;2024-03-17T07:42:33;9.30;99.90
8662;DHT22;29684;47.722;9.388;2024-03-17T07:45:18;9.50;99.90
8662;DHT22;29684;47.722;9.388;2024-03-17T07:48:02;9.70;99.90
8662;DHT22;29684;47.722;9.388;2024-03-17T07:50:57;9.70;99.90
8662;DHT22;29684;47.722;9.388;2024-03-17T07:53:42;9.70;99.90
8662;DHT22;29684;47.722;9.388;2024-03-17T07:56:26;9.70;99.90
8662;DHT22;29684;47.722;9.388;2024-03-17T07:59:10;9.70;99.90
8662;DHT22;29684;47.722;9.388;2024-03-17T08:01:59;9.80;99.90
8662;DHT22;29684;47.722;9.388;2024-03-17T08:04:44;9.70;99.90
8662;DHT22;29684;47.722;9.388;2024-03-17T08:07:32;9.80;99.90
8662;DHT22;29684;47.722;9.388;2024-03-17T08:10:16;9.80;99.90
8662;DHT22;29684;47.722;9.388;2024-03-17T08:13:02;9.80;99.90
8662;DHT22;29684;47.722;9.388;2024-03-17T08:16:04;9.80;99.90
8662;DHT22;29684;47.722;9.388;2024-03-17T08:18:52;9.90;99.90
8662;DHT22;29684;47.722;9.388;2024-03-17T08:21:36;10.00;99.90
8662;DHT22;29684;47.722;9.388;2024-03-17T08:24:20;10.00;99.90
8662;DHT22;29684;47.722;9.388;2024-03-17T08:27:07;10.20;99.90
8662;DHT22;29684;47.722;9.388;2024-03-17T08:29:51;10.40;99.90
8662;DHT22;29684;47.722;9.388;2024-03-17T08:32:35;10.40;99.90
8662;DHT22;29684;47.722;9.388;2024-03-17T08:35:20;10.40;99.90
8662;DHT22;29684;47.722;9.388;2024-03-17T08:38:05;10.70;99.90
8662;DHT22;29684;47.722;9.388;2024-03-17T08:40:53;10.70;99.90
8662;DHT22;29684;47.722;9.388;2024-03-17T08:43:37;10.60;99.90
8662;DHT22;29684;47.722;9.388;2024-03-17T08:46:22;10.90;99.90
8662;DHT22;29684;47.722;9.388;2024-03-17T08:49:07;11.00;99.90
8662;DHT22;29684;47.722;9.388;2024-03-17T08:51:51;10.90;99.90
8662;DHT22;29684;47.722;9.388;2024-03-17T08:54:35;10.90;99.90
8662;DHT22;29684;47.722;9.388;2024-03-17T08:57:19;11.10;99.90
8662;DHT22;29684;47.722;9.388;2024-03-17T09:00:03;11.10;99.90
8662;DHT22;29684;47.722;9.388;2024-03-17T09:02:47;10.90;99.90
8662;DHT22;29684;47.722;9.388;2024-03-17T09:05:34;11.00;99.90
8662;DHT22;29684;47.722;9.388;2024-03-17T09:08:20;11.00;99.90
8662;DHT22;29684;47.722;9.388;2024-03-17T09:11:12;11.00;99.90
8662;DHT22;29684;47.722;9.388;2024-03-17T09:13:57;11.40;99.90
8662;DHT22;29684;47.722;9.388;2024-03-17T09:16:42;11.50;99.90
8662;DHT22;29684;47.722;9.388;2024-03-17T09:19:26;11.60;99.90
8662;DHT22;29684;47.722;9.388;2024-03-17T09:22:13;11.70;99.90
8662;DHT22;29684;47.722;9.388;2024-03-17T09:24:57;11.80;99.90
8662;DHT22;29684;47.722;9.388;2024-03-17T09:27:41;11.70;99.90
8662;DHT22;29684;47.722;9.388;2024-03-17T09:30:25;11.90;99.90
8662;DHT22;29684;47.722;9.388;2024-03-17T09:33:09;12.40;99.90
8662;DHT22;29684;47.722;9.388;2024-03-17T09:36:08;12.50;99.90
8662;DHT22;29684;47.722;9.388;2024-03-17T09:38:55;12.60;99.90
8662;DHT22;29684;47.722;9.388;2024-03-17T09:41:39;12.30;99.90
8662;DHT22;29684;47.722;9.388;2024-03-17T09:44:23;12.20;99.90
8662;DHT22;29684;47.722;9.388;2024-03-17T09:47:18;12.30;99.90
8662;DHT22;29684;47.722;9.388;2024-03-17T09:50:05;12.50;99.90
8662;DHT22;29684;47.722;9.388;2024-03-17T09:52:56;12.30;99.90
8662;DHT22;29684;47.722;9.388;2024-03-17T09:55:41;12.50;99.90
8662;DHT22;29684;47.722;9.388;2024-03-17T09:58:27;12.60;99.90
8662;DHT22;29684;47.722;9.388;2024-03-17T10:01:12;12.70;99.90
8662;DHT22;29684;47.722;9.388;2024-03-17T10:03:56;12.70;99.90
8662;DHT22;29684;47.722;9.388;2024-03-17T10:06:48;12.60;99.90
8662;DHT22;29684;47.722;9.388;2024-03-17T10:09:32;12.40;99.90
8662;DHT22;29684;47.722;9.388;2024-03-17T10:12:29;12.30;99.90
8662;DHT22;29684;47.722;9.388;2024-03-17T10:15:13;12.40;99.90
8662;DHT22;29684;47.722;9.388;2024-03-17T10:17:58;12.50;99.90
8662;DHT22;29684;47.722;9.388;2024-03-17T10:20:42;12.30;99.90
8662;DHT22;29684;47.722;9.388;2024-03-17T10:23:26;12.70;99.90
8662;DHT22;29684;47.722;9.388;2024-03-17T10:26:14;12.90;99.90
8662;DHT22;29684;47.722;9.388;2024-03-17T10:28:59;13.10;99.90
8662;DHT22;29684;47.722;9.388;2024-03-17T10:31:43;12.90;99.90
8662;DHT22;29684;47.722;9.388;2024-03-17T10:34:29;12.80;99.90
8662;DHT22;29684;47.722;9.388;2024-03-17T10:37:23;12.80;99.90
8662;DHT22;29684;47.722;9.388;2024-03-17T10:40:12;13.70;99.90
8662;DHT22;29684;47.722;9.388;2024-03-17T10:43:00;12.90;99.90
8662;DHT22;29684;47.722;9.388;2024-03-17T10:45:45;12.80;99.90
8662;DHT22;29684;47.722;9.388;2024-03-17T10:48:31;13.20;99.90
8662;DHT22;29684;47.722;9.388;2024-03-17T10:51:17;13.50;99.90
8662;DHT22;29684;47.722;9.388;2024-03-17T10:54:02;13.60;99.90
8662;DHT22;29684;47.722;9.388;2024-03-17T10:56:47;13.60;99.90
8662;DHT22;29684;47.722;9.388;2024-03-17T10:59:41;13.50;99.90
8662;DHT22;29684;47.722;9.388;2024-03-17T11:02:27;13.70;99.90
8662;DHT22;29684;47.722;9.388;2024-03-17T11:05:27;14.10;99.90
8662;DHT22;29684;47.722;9.388;2024-03-17T11:08:18;13.90;99.90
8662;DHT22;29684;47.722;9.388;2024-03-17T11:11:02;13.50;99.90
8662;DHT22;29684;47.722;9.388;2024-03-17T11:13:51;13.40;99.90
8662;DHT22;29684;47.722;9.388;2024-03-17T11:16:35;13.40;99.90
8662;DHT22;29684;47.722;9.388;2024-03-17T11:19:19;13.40;99.90
8662;DHT22;29684;47.722;9.388;2024-03-17T11:31:34;13.00;99.90
8662;DHT22;29684;47.722;9.388;2024-03-17T11:34:31;13.20;99.90
8662;DHT22;29684;47.722;9.388;2024-03-17T11:37:41;13.30;99.90
8662;DHT22;29684;47.722;9.388;2024-03-17T11:40:25;13.50;99.90
8662;DHT22;29684;47.722;9.388;2024-03-17T11:43:16;13.50;99.90
8662;DHT22;29684;47.722;9.388;2024-03-17T11:46:01;13.50;99.90
8662;DHT22;29684;47.722;9.388;2024-03-17T11:48:45;13.70;99.90
8662;DHT22;29684;47.722;9.388;2024-03-17T11:51:29;13.60;99.90
8662;DHT22;29684;47.722;9.388;2024-03-17T11:54:19;13.40;99.90
8662;DHT22;29684;47.722;9.388;2024-03-17T11:57:11;13.60;99.90
8662;DHT22;29684;47.722;9.388;2024-03-17T11:59:56;13.40;99.90
8662;DHT22;29684;47.722;9.388;2024-03-17T12:02:41;13.50;99.90
8662;DHT22;29684;47.722;9.388;2024-03-17T12:05:25;13.40;99.90
8662;DHT22;29684;47.722;9.388;2024-03-17T12:08:20;13.50;99.90
8662;DHT22;29684;47.722;9.388;2024-03-17T12:11:17;13.70;99.90
8662;DHT22;29684;47.722;9.388;2024-03-17T12:14:21;13.70;99.90
8662;DHT22;29684;47.722;9.388;2024-03-17T12:17:11;13.40;99.90
8662;DHT22;29684;47.722;9.388;2024-03-17T12:19:55;13.30;99.90
8662;DHT22;29684;47.722;9.388;2024-03-17T12:22:40;13.50;99.90
8662;DHT22;29684;47.722;9.388;2024-03-17T12:25:26;13.70;99.90
8662;DHT22;29684;47.722;9.388;2024-03-17T12:28:16;13.90;99.90
8662;DHT22;29684;47.722;9.388;2024-03-17T12:31:01;13.50;99.90
8662;DHT22;29684;47.722;9.388;2024-03-17T12:33:45;13.40;99.90
8662;DHT22;29684;47.722;9.388;2024-03-17T12:36:29;13.50;99.90
8662;DHT22;29684;47.722;9.388;2024-03-17T12:39:26;13.60;99.90
8662;DHT22;29684;47.722;9.388;2024-03-17T12:42:12;13.80;99.90
8662;DHT22;29684;47.722;9.388;2024-03-17T12:44:59;13.80;99.90
8662;DHT22;29684;47.722;9.388;2024-03-17T12:47:48;13.70;99.90
8662;DHT22;29684;47.722;9.388;2024-03-17T12:50:32;13.90;99.90
8662;DHT22;29684;47.722;9.388;2024-03-17T12:53:18;13.90;99.90
8662;DHT22;29684;47.722;9.388;2024-03-17T12:56:02;13.80;99.90
8662;DHT22;29684;47.722;9.388;2024-03-17T12:59:07;13.90;99.90
8662;DHT22;29684;47.722;9.388;2024-03-17T13:02:12;14.20;99.90
8662;DHT22;29684;47.722;9.388;2024-03-17T13:08:04;13.90;99.90
8662;DHT22;29684;47.722;9.388;2024-03-17T13:10:49;13.90;99.90
8662;DHT22;29684;47.722;9.388;2024-03-17T13:13:33;13.90;99.90
8662;DHT22;29684;47.722;9.388;2024-03-17T13:16:18;13.90;99.90
8662;DHT22;29684;47.722;9.388;2024-03-17T13:19:02;13.70;99.90
8662;DHT22;29684;47.722;9.388;2024-03-17T13:21:46;13.70;99.90
8662;DHT22;29684;47.722;9.388;2024-03-17T13:24:31;13.80;99.90
8662;DHT22;29684;47.722;9.388;2024-03-17T13:27:15;13.90;99.90
8662;DHT22;29684;47.722;9.388;2024-03-17T13:29:59;14.00;99.90
8662;DHT22;29684;47.722;9.388;2024-03-17T13:32:44;13.70;99.90
8662;DHT22;29684;47.722;9.388;2024-03-17T13:35:32;13.30;99.90
8662;DHT22;29684;47.722;9.388;2024-03-17T13:38:18;13.20;99.90
8662;DHT22;29684;47.722;9.388;2024-03-17T13:41:02;13.40;99.90
8662;DHT22;29684;47.722;9.388;2024-03-17T13:43:48;13.30;99.90
8662;DHT22;29684;47.722;9.388;2024-03-17T13:46:33;13.10;99.90
8662;DHT22;29684;47.722;9.388;2024-03-17T13:49:18;13.00;99.90
8662;DHT22;29684;47.722;9.388;2024-03-17T13:52:02;13.00;99.90
8662;DHT22;29684;47.722;9.388;2024-03-17T13:54:48;13.00;99.90
8662;DHT22;29684;47.722;9.388;2024-03-17T13:57:33;13.00;99.90
8662;DHT22;29684;47.722;9.388;2024-03-17T14:00:18;12.80;99.90
8662;DHT22;29684;47.722;9.388;2024-03-17T14:03:03;12.70;99.90
8662;DHT22;29684;47.722;9.388;2024-03-17T14:05:48;12.60;99.90
8662;DHT22;29684;47.722;9.388;2024-03-17T14:08:32;12.60;99.90
8662;DHT22;29684;47.722;9.388;2024-03-17T14:11:16;12.30;99.90
8662;DHT22;29684;47.722;9.388;2024-03-17T14:14:00;12.70;99.90
8662;DHT22;29684;47.722;9.388;2024-03-17T14:16:45;12.70;99.90
8662;DHT22;29684;47.722;9.388;2024-03-17T14:19:30;12.70;99.90
8662;DHT22;29684;47.722;9.388;2024-03-17T14:22:14;12.90;99.90
8662;DHT22;29684;47.722;9.388;2024-03-17T14:24:59;12.90;99.90
8662;DHT22;29684;47.722;9.388;2024-03-17T14:27:44;13.00;99.90
8662;DHT22;29684;47.722;9.388;2024-03-17T14:30:29;13.00;99.90
8662;DHT22;29684;47.722;9.388;2024-03-17T14:33:14;12.90;99.90
8662;DHT22;29684;47.722;9.388;2024-03-17T14:35:58;12.90;99.90
8662;DHT22;29684;47.722;9.388;2024-03-17T14:38:42;13.10;99.90
8662;DHT22;29684;47.722;9.388;2024-03-17T14:41:31;13.10;99.90
8662;DHT22;29684;47.722;9.388;2024-03-17T14:44:14;13.20;99.90
8662;DHT22;29684;47.722;9.388;2024-03-17T14:46:59;13.20;99.90
8662;DHT22;29684;47.722;9.388;2024-03-17T14:49:43;13.50;99.90
8662;DHT22;29684;47.722;9.388;2024-03-17T14:52:29;13.40;99.90
8662;DHT22;29684;47.722;9.388;2024-03-17T14:55:13;13.30;99.90
8662;DHT22;29684;47.722;9.388;2024-03-17T14:57:58;13.10;99.90
8662;DHT22;29684;47.722;9.388;2024-03-17T15:00:42;13.10;99.90
8662;DHT22;29684;47.722;9.388;2024-03-17T15:03:26;13.00;99.90
8662;DHT22;29684;47.722;9.388;2024-03-17T15:06:15;13.00;99.90
8662;DHT22;29684;47.722;9.388;2024-03-17T15:09:02;13.30;99.90
8662;DHT22;29684;47.722;9.388;2024-03-17T15:11:50;13.40;99.90
8662;DHT22;29684;47.722;9.388;2024-03-17T15:14:34;13.70;99.90
8662;DHT22;29684;47.722;9.388;2024-03-17T15:17:18;14.00;99.90
8662;DHT22;29684;47.722;9.388;2024-03-17T15:20:02;14.00;99.90
8662;DHT22;29684;47.722;9.388;2024-03-17T15:23:00;14.00;99.90
8662;DHT22;29684;47.722;9.388;2024-03-17T15:25:45;14.00;99.90
8662;DHT22;29684;47.722;9.388;2024-03-17T15:28:29;13.90;99.90
8662;DHT22;29684;47.722;9.388;2024-03-17T15:31:14;13.90;99.90
8662;DHT22;29684;47.722;9.388;2024-03-17T15:33:58;13.80;99.90
8662;DHT22;29684;47.722;9.388;2024-03-17T15:36:42;13.70;99.90
8662;DHT22;29684;47.722;9.388;2024-03-17T15:39:28;13.70;99.90
8662;DHT22;29684;47.722;9.388;2024-03-17T15:42:13;13.90;99.90
8662;DHT22;29684;47.722;9.388;2024-03-17T15:44:57;13.80;99.90
8662;DHT22;29684;47.722;9.388;2024-03-17T15:47:41;13.50;99.90
8662;DHT22;29684;47.722;9.388;2024-03-17T15:50:26;13.40;99.90
8662;DHT22;29684;47.722;9.388;2024-03-17T15:53:12;13.10;99.90
8662;DHT22;29684;47.722;9.388;2024-03-17T15:55:57;12.80;99.90
8662;DHT22;29684;47.722;9.388;2024-03-17T15:58:42;12.70;99.90
8662;DHT22;29684;47.722;9.388;2024-03-17T16:01:26;12.70;99.90
8662;DHT22;29684;47.722;9.388;2024-03-17T16:04:10;12.60;99.90
8662;DHT22;29684;47.722;9.388;2024-03-17T16:06:55;12.50;99.90
8662;DHT22;29684;47.722;9.388;2024-03-17T16:09:39;12.40;99.90
8662;DHT22;29684;47.722;9.388;2024-03-17T16:12:23;12.30;99.90
8662;DHT22;29684;47.722;9.388;2024-03-17T16:15:09;12.10;99.90
8662;DHT22;29684;47.722;9.388;2024-03-17T16:17:53;12.10;99.90
8662;DHT22;29684;47.722;9.388;2024-03-17T16:23:34;12.00;99.90
8662;DHT22;29684;47.722;9.388;2024-03-17T16:26:20;11.90;99.90
8662;DHT22;29684;47.722;9.388;2024-03-17T16:29:09;11.90;99.90
8662;DHT22;29684;47.722;9.388;2024-03-17T16:31:53;12.00;99.90
8662;DHT22;29684;47.722;9.388;2024-03-17T16:34:38;11.90;99.90
8662;DHT22;29684;47.722;9.388;2024-03-17T16:37:22;11.80;99.90
8662;DHT22;29684;47.722;9.388;2024-03-17T16:42:52;11.80;99.90
8662;DHT22;29684;47.722;9.388;2024-03-17T16:45:41;11.90;99.90
8662;DHT22;29684;47.722;9.388;2024-03-17T16:48:27;11.90;99.90
8662;DHT22;29684;47.722;9.388;2024-03-17T16:51:12;11.90;99.90
8662;DHT22;29684;47.722;9.388;2024-03-17T16:54:02;11.90;99.90
8662;DHT22;29684;47.722;9.388;2024-03-17T16:56:47;11.80;99.90
8662;DHT22;29684;47.722;9.388;2024-03-17T16:59:32;11.70;99.90
8662;DHT22;29684;47.722;9.388;2024-03-17T17:02:18;11.60;99.90
8662;DHT22;29684;47.722;9.388;2024-03-17T17:05:03;11.60;99.90
8662;DHT22;29684;47.722;9.388;2024-03-17T17:07:49;11.60;99.90
8662;DHT22;29684;47.722;9.388;2024-03-17T17:10:33;11.60;99.90
8662;DHT22;29684;47.722;9.388;2024-03-17T17:13:17;11.50;99.90
8662;DHT22;29684;47.722;9.388;2024-03-17T17:16:01;11.50;99.90
8662;DHT22;29684;47.722;9.388;2024-03-17T17:21:34;11.40;99.90
8662;DHT22;29684;47.722;9.388;2024-03-17T17:24:19;11.30;99.90
8662;DHT22;29684;47.722;9.388;2024-03-17T17:27:12;11.30;99.90
8662;DHT22;29684;47.722;9.388;2024-03-17T17:29:57;11.20;99.90
8662;DHT22;29684;47.722;9.388;2024-03-17T17:32:41;11.20;99.90
8662;DHT22;29684;47.722;9.388;2024-03-17T17:35:26;11.10;99.90
8662;DHT22;29684;47.722;9.388;2024-03-17T17:38:10;11.00;99.90
8662;DHT22;29684;47.722;9.388;2024-03-17T17:40:54;11.00;99.90
8662;DHT22;29684;47.722;9.388;2024-03-17T17:43:39;10.90;99.90
8662;DHT22;29684;47.722;9.388;2024-03-17T17:46:24;10.90;99.90
8662;DHT22;29684;47.722;9.388;2024-03-17T17:49:09;10.90;99.90
8662;DHT22;29684;47.722;9.388;2024-03-17T17:51:54;10.90;99.90
8662;DHT22;29684;47.722;9.388;2024-03-17T17:54:38;10.80;99.90
8662;DHT22;29684;47.722;9.388;2024-03-17T17:57:22;10.80;99.90
8662;DHT22;29684;47.722;9.388;2024-03-17T18:00:07;10.80;99.90
8662;DHT22;29684;47.722;9.388;2024-03-17T18:02:55;10.80;99.90
8662;DHT22;29684;47.722;9.388;2024-03-17T18:05:42;10.80;99.90
8662;DHT22;29684;47.722;9.388;2024-03-17T18:08:28;10.80;99.90
8662;DHT22;29684;47.722;9.388;2024-03-17T18:11:30;10.70;99.90
8662;DHT22;29684;47.722;9.388;2024-03-17T18:14:14;10.80;99.90